sensor_id;sensor_type;location;lat;lon;timestamp;P1;durP1;ratioP1;P2;durP2;ratioP2
62332;SDS011;48624;49.812;8.562;2023-09-07T00:00:18;6.00;;;4.38;;
62332;SDS011;48624;49.812;8.562;2023-09-07T00:02:43;6.68;;;5.40;;
62332;SDS011;48624;49.812;8.562;2023-09-07T00:05:08;6.65;;;4.90;;
62332;SDS011;48624;49.812;8.562;2023-09-07T00:07:34;7.15;;;5.57;;
62332;SDS011;48624;49.812;8.562;2023-09-07T00:10:00;7.90;;;5.35;;
62332;SDS011;48624;49.812;8.562;2023-09-07T00:12:26;5.88;;;4.70;;
62332;SDS011;48624;49.812;8.562;2023-09-07T00:14:52;6.85;;;5.45;;
62332;SDS011;48624;49.812;8.562;2023-09-07T00:17:19;8.85;;;6.20;;
62332;SDS011;48624;49.812;8.562;2023-09-07T00:19:44;6.35;;;5.18;;
62332;SDS011;48624;49.812;8.562;2023-09-07T00:22:11;6.13;;;5.10;;
62332;SDS011;48624;49.812;8.562;2023-09-07T00:24:36;7.38;;;5.65;;
62332;SDS011;48624;49.812;8.562;2023-09-07T00:27:02;6.80;;;4.95;;
62332;SDS011;48624;49.812;8.562;2023-09-07T00:29:30;6.10;;;5.43;;
62332;SDS011;48624;49.812;8.562;2023-09-07T00:31:56;7.20;;;5.40;;
62332;SDS011;48624;49.812;8.562;2023-09-07T00:34:21;6.93;;;5.32;;
62332;SDS011;48624;49.812;8.562;2023-09-07T00:36:46;6.43;;;5.32;;
62332;SDS011;48624;49.812;8.562;2023-09-07T00:39:11;7.72;;;5.00;;
62332;SDS011;48624;49.812;8.562;2023-09-07T00:41:37;6.95;;;4.88;;
62332;SDS011;48624;49.812;8.562;2023-09-07T00:44:03;6.22;;;5.28;;
62332;SDS011;48624;49.812;8.562;2023-09-07T00:46:28;6.80;;;5.00;;
62332;SDS011;48624;49.812;8.562;2023-09-07T00:48:54;5.65;;;4.93;;
62332;SDS011;48624;49.812;8.562;2023-09-07T00:51:19;7.68;;;5.07;;
62332;SDS011;48624;49.812;8.562;2023-09-07T00:53:45;7.40;;;5.18;;
62332;SDS011;48624;49.812;8.562;2023-09-07T00:56:10;11.20;;;5.10;;
62332;SDS011;48624;49.812;8.562;2023-09-07T00:58:36;8.05;;;5.13;;
62332;SDS011;48624;49.812;8.562;2023-09-07T01:01:02;6.15;;;5.43;;
62332;SDS011;48624;49.812;8.562;2023-09-07T01:03:28;7.15;;;5.10;;
62332;SDS011;48624;49.812;8.562;2023-09-07T01:08:48;5.85;;;5.10;;
62332;SDS011;48624;49.812;8.562;2023-09-07T01:11:17;6.20;;;4.88;;
62332;SDS011;48624;49.812;8.562;2023-09-07T01:13:47;8.40;;;4.97;;
62332;SDS011;48624;49.812;8.562;2023-09-07T01:16:13;6.78;;;5.35;;
62332;SDS011;48624;49.812;8.562;2023-09-07T01:18:39;11.48;;;5.18;;
62332;SDS011;48624;49.812;8.562;2023-09-07T01:21:05;6.47;;;4.88;;
62332;SDS011;48624;49.812;8.562;2023-09-07T01:23:33;6.60;;;5.40;;
62332;SDS011;48624;49.812;8.562;2023-09-07T01:26:01;10.25;;;5.28;;
62332;SDS011;48624;49.812;8.562;2023-09-07T01:28:26;5.78;;;5.07;;
62332;SDS011;48624;49.812;8.562;2023-09-07T01:30:52;6.30;;;4.75;;
62332;SDS011;48624;49.812;8.562;2023-09-07T01:33:17;5.93;;;5.15;;
62332;SDS011;48624;49.812;8.562;2023-09-07T01:35:43;6.88;;;5.00;;
62332;SDS011;48624;49.812;8.562;2023-09-07T01:38:09;7.65;;;5.63;;
62332;SDS011;48624;49.812;8.562;2023-09-07T01:40:35;6.63;;;5.20;;
62332;SDS011;48624;49.812;8.562;2023-09-07T01:43:00;7.85;;;5.60;;
62332;SDS011;48624;49.812;8.562;2023-09-07T01:45:25;10.07;;;5.13;;
62332;SDS011;48624;49.812;8.562;2023-09-07T01:47:51;7.57;;;6.30;;
62332;SDS011;48624;49.812;8.562;2023-09-07T01:50:17;8.02;;;5.68;;
62332;SDS011;48624;49.812;8.562;2023-09-07T01:52:42;7.78;;;5.55;;
62332;SDS011;48624;49.812;8.562;2023-09-07T01:55:08;6.32;;;5.72;;
62332;SDS011;48624;49.812;8.562;2023-09-07T01:57:33;5.93;;;5.05;;
62332;SDS011;48624;49.812;8.562;2023-09-07T01:59:58;7.45;;;5.22;;
62332;SDS011;48624;49.812;8.562;2023-09-07T02:02:24;5.88;;;5.20;;
62332;SDS011;48624;49.812;8.562;2023-09-07T02:04:49;8.20;;;4.82;;
62332;SDS011;48624;49.812;8.562;2023-09-07T02:07:14;5.93;;;4.93;;
62332;SDS011;48624;49.812;8.562;2023-09-07T02:09:40;9.07;;;5.47;;
62332;SDS011;48624;49.812;8.562;2023-09-07T02:12:06;6.88;;;4.30;;
62332;SDS011;48624;49.812;8.562;2023-09-07T02:14:31;7.68;;;5.30;;
62332;SDS011;48624;49.812;8.562;2023-09-07T02:16:56;8.00;;;5.40;;
62332;SDS011;48624;49.812;8.562;2023-09-07T02:19:22;7.45;;;5.55;;
62332;SDS011;48624;49.812;8.562;2023-09-07T02:21:48;6.82;;;5.50;;
62332;SDS011;48624;49.812;8.562;2023-09-07T02:24:14;6.72;;;5.60;;
62332;SDS011;48624;49.812;8.562;2023-09-07T02:26:39;6.88;;;5.07;;
62332;SDS011;48624;49.812;8.562;2023-09-07T02:29:09;8.50;;;5.55;;
62332;SDS011;48624;49.812;8.562;2023-09-07T02:31:35;7.50;;;4.70;;
62332;SDS011;48624;49.812;8.562;2023-09-07T02:34:00;5.88;;;5.13;;
62332;SDS011;48624;49.812;8.562;2023-09-07T02:36:26;7.88;;;5.72;;
62332;SDS011;48624;49.812;8.562;2023-09-07T02:38:51;6.53;;;5.80;;
62332;SDS011;48624;49.812;8.562;2023-09-07T02:41:16;7.43;;;5.35;;
62332;SDS011;48624;49.812;8.562;2023-09-07T02:43:41;8.75;;;5.28;;
62332;SDS011;48624;49.812;8.562;2023-09-07T02:46:07;10.23;;;6.25;;
62332;SDS011;48624;49.812;8.562;2023-09-07T02:48:32;8.13;;;6.03;;
62332;SDS011;48624;49.812;8.562;2023-09-07T02:50:57;6.32;;;5.72;;
62332;SDS011;48624;49.812;8.562;2023-09-07T02:53:23;7.65;;;6.07;;
62332;SDS011;48624;49.812;8.562;2023-09-07T02:55:49;8.00;;;5.75;;
62332;SDS011;48624;49.812;8.562;2023-09-07T02:58:14;11.02;;;5.60;;
62332;SDS011;48624;49.812;8.562;2023-09-07T03:00:42;9.25;;;6.65;;
62332;SDS011;48624;49.812;8.562;2023-09-07T03:03:12;7.45;;;5.60;;
62332;SDS011;48624;49.812;8.562;2023-09-07T03:05:42;8.90;;;5.78;;
62332;SDS011;48624;49.812;8.562;2023-09-07T03:08:08;9.63;;;5.53;;
62332;SDS011;48624;49.812;8.562;2023-09-07T03:10:37;6.80;;;4.82;;
62332;SDS011;48624;49.812;8.562;2023-09-07T03:13:04;7.57;;;5.95;;
62332;SDS011;48624;49.812;8.562;2023-09-07T03:15:30;7.00;;;6.15;;
62332;SDS011;48624;49.812;8.562;2023-09-07T03:17:56;9.05;;;6.25;;
62332;SDS011;48624;49.812;8.562;2023-09-07T03:20:21;6.80;;;5.70;;
62332;SDS011;48624;49.812;8.562;2023-09-07T03:22:46;8.32;;;5.97;;
62332;SDS011;48624;49.812;8.562;2023-09-07T03:25:13;11.13;;;5.97;;
62332;SDS011;48624;49.812;8.562;2023-09-07T03:27:38;6.70;;;5.45;;
62332;SDS011;48624;49.812;8.562;2023-09-07T03:30:04;10.13;;;6.65;;
62332;SDS011;48624;49.812;8.562;2023-09-07T03:32:30;7.93;;;5.88;;
62332;SDS011;48624;49.812;8.562;2023-09-07T03:34:58;8.07;;;5.68;;
62332;SDS011;48624;49.812;8.562;2023-09-07T03:37:25;6.65;;;5.97;;
62332;SDS011;48624;49.812;8.562;2023-09-07T03:39:51;8.77;;;6.65;;
62332;SDS011;48624;49.812;8.562;2023-09-07T03:42:17;11.25;;;6.15;;
62332;SDS011;48624;49.812;8.562;2023-09-07T03:44:42;7.30;;;6.28;;
62332;SDS011;48624;49.812;8.562;2023-09-07T03:47:07;9.93;;;6.10;;
62332;SDS011;48624;49.812;8.562;2023-09-07T03:49:33;7.50;;;6.50;;
62332;SDS011;48624;49.812;8.562;2023-09-07T03:51:59;7.88;;;6.43;;
62332;SDS011;48624;49.812;8.562;2023-09-07T03:54:24;9.60;;;5.38;;
62332;SDS011;48624;49.812;8.562;2023-09-07T03:56:49;9.15;;;5.68;;
62332;SDS011;48624;49.812;8.562;2023-09-07T03:59:15;7.80;;;6.10;;
62332;SDS011;48624;49.812;8.562;2023-09-07T04:01:40;7.50;;;5.50;;
62332;SDS011;48624;49.812;8.562;2023-09-07T04:04:05;7.00;;;5.70;;
62332;SDS011;48624;49.812;8.562;2023-09-07T04:06:31;11.57;;;6.30;;
62332;SDS011;48624;49.812;8.562;2023-09-07T04:08:56;10.45;;;6.55;;
62332;SDS011;48624;49.812;8.562;2023-09-07T04:11:21;8.00;;;5.78;;
62332;SDS011;48624;49.812;8.562;2023-09-07T04:13:46;7.32;;;5.75;;
62332;SDS011;48624;49.812;8.562;2023-09-07T04:16:12;6.65;;;5.47;;
62332;SDS011;48624;49.812;8.562;2023-09-07T04:18:37;10.18;;;5.97;;
62332;SDS011;48624;49.812;8.562;2023-09-07T04:21:06;8.02;;;5.85;;
62332;SDS011;48624;49.812;8.562;2023-09-07T04:23:32;9.30;;;6.07;;
62332;SDS011;48624;49.812;8.562;2023-09-07T04:26:03;7.28;;;5.45;;
62332;SDS011;48624;49.812;8.562;2023-09-07T04:28:32;6.75;;;5.65;;
62332;SDS011;48624;49.812;8.562;2023-09-07T04:30:58;7.53;;;5.40;;
62332;SDS011;48624;49.812;8.562;2023-09-07T04:33:23;6.43;;;5.40;;
62332;SDS011;48624;49.812;8.562;2023-09-07T04:35:48;7.00;;;4.78;;
62332;SDS011;48624;49.812;8.562;2023-09-07T04:38:13;8.57;;;5.13;;
62332;SDS011;48624;49.812;8.562;2023-09-07T04:40:39;7.38;;;4.88;;
62332;SDS011;48624;49.812;8.562;2023-09-07T04:43:04;7.35;;;5.15;;
62332;SDS011;48624;49.812;8.562;2023-09-07T04:45:29;6.13;;;5.30;;
62332;SDS011;48624;49.812;8.562;2023-09-07T04:47:54;7.63;;;4.60;;
62332;SDS011;48624;49.812;8.562;2023-09-07T04:50:20;7.20;;;5.10;;
62332;SDS011;48624;49.812;8.562;2023-09-07T04:52:45;7.18;;;5.25;;
62332;SDS011;48624;49.812;8.562;2023-09-07T04:55:10;9.32;;;5.57;;
62332;SDS011;48624;49.812;8.562;2023-09-07T04:57:36;6.43;;;4.95;;
62332;SDS011;48624;49.812;8.562;2023-09-07T05:00:02;8.25;;;5.35;;
62332;SDS011;48624;49.812;8.562;2023-09-07T05:02:30;5.32;;;4.65;;
62332;SDS011;48624;49.812;8.562;2023-09-07T05:04:55;8.00;;;6.05;;
62332;SDS011;48624;49.812;8.562;2023-09-07T05:07:20;7.40;;;5.65;;
62332;SDS011;48624;49.812;8.562;2023-09-07T05:09:46;7.82;;;5.90;;
62332;SDS011;48624;49.812;8.562;2023-09-07T05:12:11;7.43;;;5.70;;
62332;SDS011;48624;49.812;8.562;2023-09-07T05:14:36;9.45;;;6.53;;
62332;SDS011;48624;49.812;8.562;2023-09-07T05:17:02;6.38;;;5.75;;
62332;SDS011;48624;49.812;8.562;2023-09-07T05:19:27;6.38;;;5.40;;
62332;SDS011;48624;49.812;8.562;2023-09-07T05:21:52;9.02;;;5.60;;
62332;SDS011;48624;49.812;8.562;2023-09-07T05:24:17;7.47;;;6.15;;
62332;SDS011;48624;49.812;8.562;2023-09-07T05:26:43;6.70;;;5.53;;
62332;SDS011;48624;49.812;8.562;2023-09-07T05:29:09;8.63;;;5.65;;
62332;SDS011;48624;49.812;8.562;2023-09-07T05:31:36;6.22;;;5.63;;
62332;SDS011;48624;49.812;8.562;2023-09-07T05:34:01;7.75;;;6.25;;
62332;SDS011;48624;49.812;8.562;2023-09-07T05:36:26;7.50;;;5.75;;
62332;SDS011;48624;49.812;8.562;2023-09-07T05:38:52;7.72;;;6.05;;
62332;SDS011;48624;49.812;8.562;2023-09-07T05:41:18;6.65;;;5.78;;
62332;SDS011;48624;49.812;8.562;2023-09-07T05:43:43;9.05;;;5.75;;
62332;SDS011;48624;49.812;8.562;2023-09-07T05:46:08;10.75;;;6.65;;
62332;SDS011;48624;49.812;8.562;2023-09-07T05:48:34;10.90;;;6.15;;
62332;SDS011;48624;49.812;8.562;2023-09-07T05:50:59;6.22;;;5.38;;
62332;SDS011;48624;49.812;8.562;2023-09-07T05:53:24;7.60;;;5.32;;
62332;SDS011;48624;49.812;8.562;2023-09-07T05:55:51;8.18;;;6.07;;
62332;SDS011;48624;49.812;8.562;2023-09-07T05:58:16;6.18;;;5.57;;
62332;SDS011;48624;49.812;8.562;2023-09-07T06:00:42;6.60;;;5.50;;
62332;SDS011;48624;49.812;8.562;2023-09-07T06:03:08;9.32;;;5.38;;
62332;SDS011;48624;49.812;8.562;2023-09-07T06:05:34;5.88;;;5.20;;
62332;SDS011;48624;49.812;8.562;2023-09-07T06:08:01;5.90;;;5.30;;
62332;SDS011;48624;49.812;8.562;2023-09-07T06:10:29;6.32;;;4.95;;
62332;SDS011;48624;49.812;8.562;2023-09-07T06:12:55;7.13;;;4.43;;
62332;SDS011;48624;49.812;8.562;2023-09-07T06:15:20;7.70;;;4.60;;
62332;SDS011;48624;49.812;8.562;2023-09-07T06:17:47;8.50;;;4.25;;
62332;SDS011;48624;49.812;8.562;2023-09-07T06:20:12;7.40;;;4.95;;
62332;SDS011;48624;49.812;8.562;2023-09-07T06:22:38;7.53;;;4.35;;
62332;SDS011;48624;49.812;8.562;2023-09-07T06:25:03;5.95;;;4.22;;
62332;SDS011;48624;49.812;8.562;2023-09-07T06:27:29;5.05;;;4.40;;
62332;SDS011;48624;49.812;8.562;2023-09-07T06:29:54;5.40;;;4.43;;
62332;SDS011;48624;49.812;8.562;2023-09-07T06:32:19;6.22;;;4.38;;
62332;SDS011;48624;49.812;8.562;2023-09-07T06:34:45;6.30;;;4.38;;
62332;SDS011;48624;49.812;8.562;2023-09-07T06:37:11;7.18;;;4.32;;
62332;SDS011;48624;49.812;8.562;2023-09-07T06:39:36;8.63;;;4.63;;
62332;SDS011;48624;49.812;8.562;2023-09-07T06:42:02;4.70;;;4.25;;
62332;SDS011;48624;49.812;8.562;2023-09-07T06:44:28;5.15;;;4.15;;
62332;SDS011;48624;49.812;8.562;2023-09-07T06:46:54;7.32;;;3.53;;
62332;SDS011;48624;49.812;8.562;2023-09-07T06:49:19;8.10;;;4.75;;
62332;SDS011;48624;49.812;8.562;2023-09-07T06:51:45;5.03;;;4.50;;
62332;SDS011;48624;49.812;8.562;2023-09-07T06:54:10;5.00;;;3.90;;
62332;SDS011;48624;49.812;8.562;2023-09-07T06:56:35;5.35;;;4.07;;
62332;SDS011;48624;49.812;8.562;2023-09-07T06:59:01;6.72;;;4.30;;
62332;SDS011;48624;49.812;8.562;2023-09-07T07:01:26;5.53;;;4.32;;
62332;SDS011;48624;49.812;8.562;2023-09-07T07:03:52;5.03;;;4.43;;
62332;SDS011;48624;49.812;8.562;2023-09-07T07:06:18;4.38;;;3.97;;
62332;SDS011;48624;49.812;8.562;2023-09-07T07:08:43;5.38;;;4.40;;
62332;SDS011;48624;49.812;8.562;2023-09-07T07:11:09;6.28;;;4.28;;
62332;SDS011;48624;49.812;8.562;2023-09-07T07:13:34;5.32;;;4.15;;
62332;SDS011;48624;49.812;8.562;2023-09-07T07:15:59;5.22;;;4.30;;
62332;SDS011;48624;49.812;8.562;2023-09-07T07:18:25;5.07;;;4.55;;
62332;SDS011;48624;49.812;8.562;2023-09-07T07:20:50;4.32;;;3.92;;
62332;SDS011;48624;49.812;8.562;2023-09-07T07:23:16;7.20;;;3.92;;
62332;SDS011;48624;49.812;8.562;2023-09-07T07:25:41;7.05;;;5.35;;
62332;SDS011;48624;49.812;8.562;2023-09-07T07:28:07;6.35;;;4.63;;
62332;SDS011;48624;49.812;8.562;2023-09-07T07:30:33;4.85;;;4.20;;
62332;SDS011;48624;49.812;8.562;2023-09-07T07:32:59;4.35;;;3.95;;
62332;SDS011;48624;49.812;8.562;2023-09-07T07:35:25;5.95;;;4.30;;
62332;SDS011;48624;49.812;8.562;2023-09-07T07:37:50;5.38;;;3.95;;
62332;SDS011;48624;49.812;8.562;2023-09-07T07:40:16;4.75;;;4.25;;
62332;SDS011;48624;49.812;8.562;2023-09-07T07:42:42;5.20;;;4.70;;
62332;SDS011;48624;49.812;8.562;2023-09-07T07:45:08;5.68;;;3.80;;
62332;SDS011;48624;49.812;8.562;2023-09-07T07:47:34;6.97;;;4.80;;
62332;SDS011;48624;49.812;8.562;2023-09-07T07:49:59;4.88;;;4.30;;
62332;SDS011;48624;49.812;8.562;2023-09-07T07:52:24;5.25;;;4.35;;
62332;SDS011;48624;49.812;8.562;2023-09-07T07:54:49;5.10;;;4.07;;
62332;SDS011;48624;49.812;8.562;2023-09-07T07:57:15;4.40;;;3.88;;
62332;SDS011;48624;49.812;8.562;2023-09-07T07:59:40;4.63;;;4.22;;
62332;SDS011;48624;49.812;8.562;2023-09-07T08:02:05;5.78;;;4.38;;
62332;SDS011;48624;49.812;8.562;2023-09-07T08:04:31;6.10;;;4.10;;
62332;SDS011;48624;49.812;8.562;2023-09-07T08:06:57;6.43;;;4.57;;
62332;SDS011;48624;49.812;8.562;2023-09-07T08:09:28;4.72;;;4.32;;
62332;SDS011;48624;49.812;8.562;2023-09-07T08:11:54;5.55;;;4.00;;
62332;SDS011;48624;49.812;8.562;2023-09-07T08:14:20;6.18;;;4.15;;
62332;SDS011;48624;49.812;8.562;2023-09-07T08:16:47;10.23;;;4.78;;
62332;SDS011;48624;49.812;8.562;2023-09-07T08:19:12;5.50;;;4.20;;
62332;SDS011;48624;49.812;8.562;2023-09-07T08:21:38;4.53;;;4.13;;
62332;SDS011;48624;49.812;8.562;2023-09-07T08:24:03;4.70;;;4.28;;
62332;SDS011;48624;49.812;8.562;2023-09-07T08:26:28;9.45;;;4.43;;
62332;SDS011;48624;49.812;8.562;2023-09-07T08:28:54;4.65;;;4.10;;
62332;SDS011;48624;49.812;8.562;2023-09-07T08:31:19;4.60;;;3.92;;
62332;SDS011;48624;49.812;8.562;2023-09-07T08:33:47;7.15;;;4.70;;
62332;SDS011;48624;49.812;8.562;2023-09-07T08:36:15;6.60;;;4.53;;
62332;SDS011;48624;49.812;8.562;2023-09-07T08:38:42;5.63;;;4.80;;
62332;SDS011;48624;49.812;8.562;2023-09-07T08:41:07;6.00;;;4.10;;
62332;SDS011;48624;49.812;8.562;2023-09-07T08:43:33;4.13;;;3.72;;
62332;SDS011;48624;49.812;8.562;2023-09-07T08:46:23;5.45;;;3.70;;
62332;SDS011;48624;49.812;8.562;2023-09-07T08:48:50;7.57;;;4.40;;
62332;SDS011;48624;49.812;8.562;2023-09-07T08:51:17;4.50;;;4.10;;
62332;SDS011;48624;49.812;8.562;2023-09-07T08:53:43;6.10;;;3.75;;
62332;SDS011;48624;49.812;8.562;2023-09-07T08:56:11;7.63;;;5.15;;
62332;SDS011;48624;49.812;8.562;2023-09-07T08:58:37;5.60;;;4.72;;
62332;SDS011;48624;49.812;8.562;2023-09-07T09:01:03;5.07;;;4.55;;
62332;SDS011;48624;49.812;8.562;2023-09-07T09:03:28;8.73;;;4.20;;
62332;SDS011;48624;49.812;8.562;2023-09-07T09:05:55;4.20;;;3.80;;
62332;SDS011;48624;49.812;8.562;2023-09-07T09:08:21;4.53;;;4.13;;
62332;SDS011;48624;49.812;8.562;2023-09-07T09:10:49;4.13;;;3.67;;
62332;SDS011;48624;49.812;8.562;2023-09-07T09:13:29;4.43;;;3.95;;
62332;SDS011;48624;49.812;8.562;2023-09-07T09:15:58;5.47;;;4.53;;
62332;SDS011;48624;49.812;8.562;2023-09-07T09:18:28;8.30;;;4.32;;
62332;SDS011;48624;49.812;8.562;2023-09-07T09:20:54;4.85;;;4.28;;
62332;SDS011;48624;49.812;8.562;2023-09-07T09:23:20;6.32;;;4.32;;
62332;SDS011;48624;49.812;8.562;2023-09-07T09:25:47;4.60;;;4.20;;
62332;SDS011;48624;49.812;8.562;2023-09-07T09:28:13;4.88;;;4.00;;
62332;SDS011;48624;49.812;8.562;2023-09-07T09:30:39;5.57;;;4.28;;
62332;SDS011;48624;49.812;8.562;2023-09-07T09:33:05;6.68;;;4.40;;
62332;SDS011;48624;49.812;8.562;2023-09-07T09:35:32;4.45;;;3.92;;
62332;SDS011;48624;49.812;8.562;2023-09-07T09:38:00;4.55;;;4.15;;
62332;SDS011;48624;49.812;8.562;2023-09-07T09:40:30;4.97;;;3.63;;
62332;SDS011;48624;49.812;8.562;2023-09-07T09:42:56;4.68;;;4.15;;
62332;SDS011;48624;49.812;8.562;2023-09-07T09:45:22;5.18;;;4.28;;
62332;SDS011;48624;49.812;8.562;2023-09-07T09:47:50;4.88;;;3.65;;
62332;SDS011;48624;49.812;8.562;2023-09-07T09:50:19;4.72;;;4.32;;
62332;SDS011;48624;49.812;8.562;2023-09-07T09:52:45;6.43;;;4.43;;
62332;SDS011;48624;49.812;8.562;2023-09-07T09:55:11;6.57;;;4.10;;
62332;SDS011;48624;49.812;8.562;2023-09-07T09:57:38;6.65;;;4.75;;
62332;SDS011;48624;49.812;8.562;2023-09-07T10:00:07;5.78;;;3.65;;
62332;SDS011;48624;49.812;8.562;2023-09-07T10:02:42;4.07;;;3.70;;
62332;SDS011;48624;49.812;8.562;2023-09-07T10:05:10;6.18;;;3.92;;
62332;SDS011;48624;49.812;8.562;2023-09-07T10:07:42;5.43;;;4.18;;
62332;SDS011;48624;49.812;8.562;2023-09-07T10:10:15;4.60;;;3.75;;
62332;SDS011;48624;49.812;8.562;2023-09-07T10:12:52;5.82;;;3.95;;
62332;SDS011;48624;49.812;8.562;2023-09-07T10:15:21;4.07;;;3.65;;
62332;SDS011;48624;49.812;8.562;2023-09-07T10:17:50;4.35;;;3.65;;
62332;SDS011;48624;49.812;8.562;2023-09-07T10:20:27;6.50;;;3.90;;
62332;SDS011;48624;49.812;8.562;2023-09-07T10:23:01;4.60;;;4.07;;
62332;SDS011;48624;49.812;8.562;2023-09-07T10:25:29;3.88;;;3.58;;
62332;SDS011;48624;49.812;8.562;2023-09-07T10:27:55;4.35;;;3.80;;
62332;SDS011;48624;49.812;8.562;2023-09-07T10:30:20;5.30;;;3.72;;
62332;SDS011;48624;49.812;8.562;2023-09-07T10:32:49;5.50;;;4.30;;
62332;SDS011;48624;49.812;8.562;2023-09-07T10:35:15;6.95;;;3.85;;
62332;SDS011;48624;49.812;8.562;2023-09-07T10:37:42;6.32;;;3.78;;
62332;SDS011;48624;49.812;8.562;2023-09-07T10:40:10;5.00;;;4.00;;
62332;SDS011;48624;49.812;8.562;2023-09-07T10:42:37;5.05;;;4.18;;
62332;SDS011;48624;49.812;8.562;2023-09-07T10:45:12;5.05;;;3.50;;
62332;SDS011;48624;49.812;8.562;2023-09-07T10:47:41;5.50;;;3.40;;
62332;SDS011;48624;49.812;8.562;2023-09-07T10:50:09;4.38;;;3.45;;
62332;SDS011;48624;49.812;8.562;2023-09-07T10:52:35;4.07;;;3.40;;
62332;SDS011;48624;49.812;8.562;2023-09-07T10:55:01;4.18;;;3.63;;
62332;SDS011;48624;49.812;8.562;2023-09-07T10:57:26;5.38;;;3.60;;
62332;SDS011;48624;49.812;8.562;2023-09-07T10:59:52;5.18;;;3.83;;
62332;SDS011;48624;49.812;8.562;2023-09-07T11:02:20;4.10;;;3.08;;
62332;SDS011;48624;49.812;8.562;2023-09-07T11:04:45;5.35;;;3.80;;
62332;SDS011;48624;49.812;8.562;2023-09-07T11:07:10;3.65;;;3.30;;
62332;SDS011;48624;49.812;8.562;2023-09-07T11:09:40;4.78;;;3.17;;
62332;SDS011;48624;49.812;8.562;2023-09-07T11:12:06;5.03;;;3.13;;
62332;SDS011;48624;49.812;8.562;2023-09-07T11:14:33;3.83;;;2.90;;
62332;SDS011;48624;49.812;8.562;2023-09-07T11:16:58;6.10;;;2.95;;
62332;SDS011;48624;49.812;8.562;2023-09-07T11:19:25;4.75;;;3.13;;
62332;SDS011;48624;49.812;8.562;2023-09-07T11:21:53;3.97;;;3.15;;
62332;SDS011;48624;49.812;8.562;2023-09-07T11:24:18;4.50;;;3.55;;
62332;SDS011;48624;49.812;8.562;2023-09-07T11:26:44;6.18;;;3.33;;
62332;SDS011;48624;49.812;8.562;2023-09-07T11:29:17;3.80;;;3.40;;
62332;SDS011;48624;49.812;8.562;2023-09-07T11:31:44;3.30;;;3.00;;
62332;SDS011;48624;49.812;8.562;2023-09-07T11:34:13;3.63;;;3.30;;
62332;SDS011;48624;49.812;8.562;2023-09-07T11:36:40;5.22;;;3.00;;
62332;SDS011;48624;49.812;8.562;2023-09-07T11:39:06;6.30;;;2.92;;
62332;SDS011;48624;49.812;8.562;2023-09-07T11:41:39;4.85;;;3.15;;
62332;SDS011;48624;49.812;8.562;2023-09-07T11:44:07;4.03;;;2.90;;
62332;SDS011;48624;49.812;8.562;2023-09-07T11:46:33;3.78;;;3.40;;
62332;SDS011;48624;49.812;8.562;2023-09-07T11:48:59;5.43;;;3.08;;
62332;SDS011;48624;49.812;8.562;2023-09-07T11:51:24;4.32;;;3.13;;
62332;SDS011;48624;49.812;8.562;2023-09-07T11:53:50;3.05;;;2.75;;
62332;SDS011;48624;49.812;8.562;2023-09-07T11:56:15;4.30;;;3.10;;
62332;SDS011;48624;49.812;8.562;2023-09-07T11:58:41;4.50;;;2.67;;
62332;SDS011;48624;49.812;8.562;2023-09-07T12:01:07;4.18;;;2.97;;
62332;SDS011;48624;49.812;8.562;2023-09-07T12:03:33;3.65;;;2.63;;
62332;SDS011;48624;49.812;8.562;2023-09-07T12:05:59;3.38;;;2.47;;
62332;SDS011;48624;49.812;8.562;2023-09-07T12:08:25;3.83;;;2.85;;
62332;SDS011;48624;49.812;8.562;2023-09-07T12:10:50;5.50;;;3.50;;
62332;SDS011;48624;49.812;8.562;2023-09-07T12:13:15;5.45;;;2.97;;
62332;SDS011;48624;49.812;8.562;2023-09-07T12:15:40;3.38;;;3.08;;
62332;SDS011;48624;49.812;8.562;2023-09-07T12:18:06;2.90;;;2.60;;
62332;SDS011;48624;49.812;8.562;2023-09-07T12:20:32;4.53;;;3.00;;
62332;SDS011;48624;49.812;8.562;2023-09-07T12:22:59;4.65;;;3.05;;
62332;SDS011;48624;49.812;8.562;2023-09-07T12:25:25;3.55;;;2.70;;
62332;SDS011;48624;49.812;8.562;2023-09-07T12:27:50;4.47;;;3.08;;
62332;SDS011;48624;49.812;8.562;2023-09-07T12:30:18;7.80;;;3.28;;
62332;SDS011;48624;49.812;8.562;2023-09-07T12:32:45;3.22;;;2.42;;
62332;SDS011;48624;49.812;8.562;2023-09-07T12:35:10;4.20;;;3.03;;
62332;SDS011;48624;49.812;8.562;2023-09-07T12:37:35;4.05;;;3.25;;
62332;SDS011;48624;49.812;8.562;2023-09-07T12:40:02;3.83;;;2.88;;
62332;SDS011;48624;49.812;8.562;2023-09-07T12:42:31;5.72;;;3.00;;
62332;SDS011;48624;49.812;8.562;2023-09-07T12:44:57;3.47;;;3.17;;
62332;SDS011;48624;49.812;8.562;2023-09-07T12:47:22;4.57;;;2.70;;
62332;SDS011;48624;49.812;8.562;2023-09-07T12:49:47;4.57;;;2.90;;
62332;SDS011;48624;49.812;8.562;2023-09-07T12:52:13;3.67;;;2.47;;
62332;SDS011;48624;49.812;8.562;2023-09-07T12:54:38;4.05;;;3.10;;
62332;SDS011;48624;49.812;8.562;2023-09-07T12:57:03;3.30;;;3.00;;
62332;SDS011;48624;49.812;8.562;2023-09-07T12:59:29;4.82;;;3.10;;
62332;SDS011;48624;49.812;8.562;2023-09-07T13:01:54;5.93;;;3.25;;
62332;SDS011;48624;49.812;8.562;2023-09-07T13:04:23;4.53;;;3.10;;
62332;SDS011;48624;49.812;8.562;2023-09-07T13:06:48;7.20;;;3.40;;
62332;SDS011;48624;49.812;8.562;2023-09-07T13:09:14;3.83;;;2.45;;
62332;SDS011;48624;49.812;8.562;2023-09-07T13:11:39;8.07;;;3.13;;
62332;SDS011;48624;49.812;8.562;2023-09-07T13:14:04;3.67;;;2.85;;
62332;SDS011;48624;49.812;8.562;2023-09-07T13:16:30;2.97;;;2.67;;
62332;SDS011;48624;49.812;8.562;2023-09-07T13:18:57;6.95;;;3.20;;
62332;SDS011;48624;49.812;8.562;2023-09-07T13:21:23;3.78;;;3.20;;
62332;SDS011;48624;49.812;8.562;2023-09-07T13:23:48;4.32;;;3.08;;
62332;SDS011;48624;49.812;8.562;2023-09-07T13:26:14;5.45;;;3.03;;
62332;SDS011;48624;49.812;8.562;2023-09-07T13:28:39;2.72;;;2.53;;
62332;SDS011;48624;49.812;8.562;2023-09-07T13:31:05;5.00;;;3.33;;
62332;SDS011;48624;49.812;8.562;2023-09-07T13:33:30;4.85;;;3.35;;
62332;SDS011;48624;49.812;8.562;2023-09-07T13:35:56;5.47;;;3.08;;
62332;SDS011;48624;49.812;8.562;2023-09-07T13:38:21;7.13;;;3.30;;
62332;SDS011;48624;49.812;8.562;2023-09-07T13:40:46;3.85;;;3.05;;
62332;SDS011;48624;49.812;8.562;2023-09-07T13:43:12;3.85;;;2.70;;
62332;SDS011;48624;49.812;8.562;2023-09-07T13:45:37;5.72;;;3.50;;
62332;SDS011;48624;49.812;8.562;2023-09-07T13:48:02;2.78;;;2.53;;
62332;SDS011;48624;49.812;8.562;2023-09-07T13:50:28;4.00;;;2.90;;
62332;SDS011;48624;49.812;8.562;2023-09-07T13:52:54;2.95;;;2.63;;
62332;SDS011;48624;49.812;8.562;2023-09-07T13:55:20;4.30;;;2.92;;
62332;SDS011;48624;49.812;8.562;2023-09-07T13:57:45;4.80;;;2.88;;
62332;SDS011;48624;49.812;8.562;2023-09-07T14:00:12;4.93;;;3.00;;
62332;SDS011;48624;49.812;8.562;2023-09-07T14:02:38;3.65;;;3.17;;
62332;SDS011;48624;49.812;8.562;2023-09-07T14:05:03;5.63;;;2.92;;
62332;SDS011;48624;49.812;8.562;2023-09-07T14:07:29;5.45;;;3.10;;
62332;SDS011;48624;49.812;8.562;2023-09-07T14:09:55;3.70;;;2.75;;
62332;SDS011;48624;49.812;8.562;2023-09-07T14:12:20;4.70;;;3.13;;
62332;SDS011;48624;49.812;8.562;2023-09-07T14:14:47;4.28;;;3.03;;
62332;SDS011;48624;49.812;8.562;2023-09-07T14:17:13;3.08;;;2.60;;
62332;SDS011;48624;49.812;8.562;2023-09-07T14:19:38;5.32;;;2.65;;
62332;SDS011;48624;49.812;8.562;2023-09-07T14:22:03;6.25;;;3.60;;
62332;SDS011;48624;49.812;8.562;2023-09-07T14:24:29;5.65;;;3.47;;
62332;SDS011;48624;49.812;8.562;2023-09-07T14:26:54;3.42;;;2.53;;
62332;SDS011;48624;49.812;8.562;2023-09-07T14:29:19;3.65;;;2.72;;
62332;SDS011;48624;49.812;8.562;2023-09-07T14:31:45;3.70;;;2.88;;
62332;SDS011;48624;49.812;8.562;2023-09-07T14:34:11;3.30;;;2.75;;
62332;SDS011;48624;49.812;8.562;2023-09-07T14:36:37;4.80;;;2.92;;
62332;SDS011;48624;49.812;8.562;2023-09-07T14:39:02;3.20;;;2.90;;
62332;SDS011;48624;49.812;8.562;2023-09-07T14:41:29;4.15;;;3.25;;
62332;SDS011;48624;49.812;8.562;2023-09-07T14:43:55;4.18;;;3.28;;